Time;durP1;ratioP1;P1;durP2;ratioP2;P2;SDS_P1;SDS_P2;PMS_P1;PMS_P2;Temp;Humidity;BMP_temperature;BMP_pressure;BME280_temperature;BME280_humidity;BME280_pressure;Samples;Min_cycle;Max_cycle;Signal;HPM_P1;HPM_P2
2024/03/28 00:03:53;;;;;;;5.35;1.40;;;;;;;;;;10084054;28;20057;-75
2024/03/28 00:08:45;;;;;;;2.25;1.55;;;;;;;;;;10080949;28;20034;-75
2024/03/28 00:13:37;;;;;;;2.00;1.90;;;;;;;;;;10094637;28;20045;-74
2024/03/28 00:18:31;;;;;;;1.70;1.60;;;;;;;;;;10085823;28;20107;-75
2024/03/28 00:23:24;;;;;;;3.53;2.28;;;;;;;;;;10104326;28;20041;-75
2024/03/28 00:28:17;;;;;;;4.25;1.40;;;;;;;;;;10108346;28;20509;-75
2024/03/28 00:33:09;;;;;;;3.17;1.50;;;;;;;;;;10108534;28;20108;-75
2024/03/28 00:38:02;;;;;;;5.22;2.17;;;;;;;;;;10102865;28;20053;-75
2024/03/28 00:42:54;;;;;;;2.90;1.73;;;;;;;;;;10104192;28;20055;-76
2024/03/28 00:47:47;;;;;;;2.28;1.50;;;;;;;;;;10107330;28;20095;-76
2024/03/28 00:52:40;;;;;;;4.88;1.70;;;;;;;;;;10093869;28;20508;-76
2024/03/28 00:57:32;;;;;;;5.60;1.70;;;;;;;;;;10093373;28;20053;-76
2024/03/28 01:02:25;;;;;;;3.75;1.42;;;;;;;;;;10093383;28;20087;-76
2024/03/28 01:07:17;;;;;;;3.10;2.15;;;;;;;;;;10092572;28;20405;-76
2024/03/28 01:12:09;;;;;;;3.22;1.40;;;;;;;;;;10092639;28;20044;-74
2024/03/28 01:17:01;;;;;;;2.35;1.55;;;;;;;;;;10082277;28;20045;-75
2024/03/28 01:21:54;;;;;;;2.78;1.83;;;;;;;;;;10076083;28;20160;-75
2024/03/28 01:26:46;;;;;;;4.20;1.92;;;;;;;;;;10073602;28;20587;-76
2024/03/28 01:31:39;;;;;;;3.13;1.30;;;;;;;;;;10058930;28;20037;-75
2024/03/28 01:36:31;;;;;;;2.88;1.45;;;;;;;;;;10073492;28;20057;-76
2024/03/28 01:41:24;;;;;;;9.57;1.63;;;;;;;;;;10076622;28;20551;-75
2024/03/28 01:46:17;;;;;;;7.05;2.58;;;;;;;;;;10073250;28;20492;-75
2024/03/28 01:51:10;;;;;;;5.65;2.38;;;;;;;;;;10068452;28;20088;-74
2024/03/28 01:56:04;;;;;;;3.17;1.50;;;;;;;;;;10075137;28;20488;-76
2024/03/28 02:00:57;;;;;;;2.80;1.60;;;;;;;;;;10074496;28;20055;-75
2024/03/28 02:05:51;;;;;;;4.53;2.88;;;;;;;;;;10068757;28;20095;-75
2024/03/28 02:10:45;;;;;;;2.80;2.42;;;;;;;;;;10066962;28;20052;-76
2024/03/28 02:15:39;;;;;;;4.82;2.10;;;;;;;;;;10069348;28;20512;-74
2024/03/28 02:20:32;;;;;;;4.32;1.80;;;;;;;;;;10073906;28;20057;-74
2024/03/28 02:25:25;;;;;;;4.82;1.42;;;;;;;;;;10057931;28;20049;-75
2024/03/28 02:30:17;;;;;;;2.45;1.75;;;;;;;;;;10061136;28;20413;-76
2024/03/28 02:35:11;;;;;;;3.88;1.50;;;;;;;;;;10069885;28;20052;-76
2024/03/28 02:40:07;;;;;;;6.30;2.28;;;;;;;;;;10077087;28;20033;-76
2024/03/28 02:45:00;;;;;;;3.50;1.65;;;;;;;;;;10059276;28;20417;-75
2024/03/28 02:49:53;;;;;;;2.03;1.52;;;;;;;;;;10074188;28;20045;-76
2024/03/28 02:54:45;;;;;;;1.52;1.20;;;;;;;;;;10088983;28;20041;-75
2024/03/28 02:59:38;;;;;;;2.80;1.42;;;;;;;;;;10093913;28;20049;-76
2024/03/28 03:04:30;;;;;;;2.50;1.25;;;;;;;;;;10083175;28;20049;-76
2024/03/28 03:09:23;;;;;;;2.10;1.75;;;;;;;;;;10097970;28;20048;-76
2024/03/28 03:14:16;;;;;;;1.77;1.48;;;;;;;;;;10072619;28;20056;-74
2024/03/28 03:19:10;;;;;;;5.70;1.45;;;;;;;;;;10090500;28;20049;-77
2024/03/28 03:24:03;;;;;;;3.35;1.98;;;;;;;;;;10098805;28;20482;-76
2024/03/28 03:39:17;;;;;;;1.90;1.10;;;;;;;;;;10090749;28;20049;-75
2024/03/28 03:44:09;;;;;;;4.70;1.90;;;;;;;;;;10089110;28;20479;-75
2024/03/28 03:49:03;;;;;;;1.73;1.10;;;;;;;;;;10055272;28;20054;-75
2024/03/28 03:53:55;;;;;;;4.90;1.52;;;;;;;;;;10030143;28;20160;-75
2024/03/28 03:58:48;;;;;;;2.40;1.20;;;;;;;;;;10016619;28;20045;-75
2024/03/28 04:03:41;;;;;;;1.35;1.20;;;;;;;;;;10019260;28;20053;-75
2024/03/28 04:08:33;;;;;;;2.08;1.10;;;;;;;;;;10024608;28;20072;-75
2024/03/28 04:13:25;;;;;;;2.53;1.30;;;;;;;;;;10017383;28;20050;-76
2024/03/28 04:18:18;;;;;;;4.95;1.85;;;;;;;;;;10018527;28;20469;-76
2024/03/28 04:23:10;;;;;;;1.65;1.20;;;;;;;;;;10034259;28;20057;-76
2024/03/28 04:28:03;;;;;;;2.08;1.17;;;;;;;;;;10022162;28;20509;-76
2024/03/28 04:32:56;;;;;;;4.05;2.00;;;;;;;;;;10032101;28;20054;-76
2024/03/28 04:37:51;;;;;;;4.53;1.20;;;;;;;;;;10027822;28;20062;-76
2024/03/28 04:42:50;;;;;;;3.03;1.20;;;;;;;;;;10016536;28;20045;-76
2024/03/28 04:47:43;;;;;;;1.83;0.90;;;;;;;;;;10038560;28;20046;-76
2024/03/28 04:52:35;;;;;;;2.55;1.20;;;;;;;;;;10071405;28;20116;-76
2024/03/28 04:57:27;;;;;;;3.67;1.58;;;;;;;;;;10073952;28;20049;-76
2024/03/28 05:02:20;;;;;;;1.98;1.80;;;;;;;;;;10081252;28;20048;-75
2024/03/28 05:07:13;;;;;;;3.05;1.77;;;;;;;;;;10067885;28;20048;-75
2024/03/28 05:12:07;;;;;;;1.55;0.98;;;;;;;;;;10079075;28;20033;-75
2024/03/28 05:17:00;;;;;;;2.50;1.20;;;;;;;;;;10070916;28;20045;-74
2024/03/28 05:21:52;;;;;;;3.28;1.10;;;;;;;;;;10061317;28;20052;-74
2024/03/28 05:26:45;;;;;;;1.25;1.13;;;;;;;;;;10070161;28;20052;-74
2024/03/28 05:31:38;;;;;;;3.15;1.10;;;;;;;;;;10077008;28;20072;-76
2024/03/28 05:36:30;;;;;;;14.32;11.52;;;;;;;;;;10079490;28;20052;-74
2024/03/28 05:41:23;;;;;;;4.93;3.38;;;;;;;;;;10065846;28;20045;-74
2024/03/28 05:46:15;;;;;;;3.83;3.50;;;;;;;;;;10082537;28;20123;-76
2024/03/28 05:51:09;;;;;;;12.60;11.30;;;;;;;;;;10074054;28;20059;-77
2024/03/28 05:56:01;;;;;;;15.98;9.07;;;;;;;;;;10074822;28;20041;-76
2024/03/28 06:00:54;;;;;;;14.20;12.30;;;;;;;;;;10075374;28;20057;-75
2024/03/28 06:05:47;;;;;;;3.95;2.00;;;;;;;;;;10067426;28;20088;-76
2024/03/28 06:10:39;;;;;;;5.85;4.35;;;;;;;;;;10074325;28;20049;-75
2024/03/28 06:15:32;;;;;;;6.55;5.18;;;;;;;;;;10085573;28;20056;-75
2024/03/28 06:20:24;;;;;;;10.55;5.05;;;;;;;;;;10089599;28;20049;-75
2024/03/28 06:25:17;;;;;;;15.45;12.32;;;;;;;;;;10089235;28;20045;-75
2024/03/28 06:30:11;;;;;;;18.90;12.75;;;;;;;;;;10089028;28;20067;-76
2024/03/28 06:35:05;;;;;;;39.85;27.88;;;;;;;;;;10088897;28;20118;-75
2024/03/28 06:39:57;;;;;;;16.75;12.30;;;;;;;;;;10084970;28;20044;-75
2024/03/28 06:44:52;;;;;;;12.68;7.55;;;;;;;;;;10084887;28;20044;-76
2024/03/28 06:49:44;;;;;;;10.75;5.03;;;;;;;;;;10090004;28;20053;-78
2024/03/28 06:54:36;;;;;;;5.18;3.83;;;;;;;;;;10104700;28;20483;-76
2024/03/28 06:59:29;;;;;;;5.88;2.65;;;;;;;;;;10104820;28;20053;-77
2024/03/28 07:04:21;;;;;;;6.68;3.28;;;;;;;;;;10104557;28;20048;-76
2024/03/28 07:09:14;;;;;;;6.72;2.30;;;;;;;;;;10104039;28;20088;-76
2024/03/28 07:14:08;;;;;;;5.78;3.55;;;;;;;;;;10103442;28;20087;-76
2024/03/28 07:19:01;;;;;;;5.13;4.60;;;;;;;;;;10112672;28;20053;-75
2024/03/28 07:23:54;;;;;;;4.50;3.25;;;;;;;;;;10104288;28;20064;-76
2024/03/28 07:28:46;;;;;;;7.45;3.33;;;;;;;;;;10103766;28;20473;-77
2024/03/28 07:33:38;;;;;;;5.70;3.55;;;;;;;;;;10103895;28;20397;-76
2024/03/28 07:38:30;;;;;;;7.63;4.88;;;;;;;;;;10103342;28;20051;-78
2024/03/28 07:43:23;;;;;;;4.07;2.30;;;;;;;;;;10102842;28;20176;-76
2024/03/28 07:48:16;;;;;;;3.53;3.17;;;;;;;;;;10103001;28;20078;-75
2024/03/28 07:53:09;;;;;;;3.53;2.17;;;;;;;;;;10086704;28;20044;-78
2024/03/28 07:58:02;;;;;;;7.53;4.20;;;;;;;;;;10084566;28;20561;-77
2024/03/28 08:02:55;;;;;;;5.65;2.80;;;;;;;;;;10086106;28;20071;-78
2024/03/28 08:07:48;;;;;;;11.38;4.68;;;;;;;;;;10080751;28;20440;-76
2024/03/28 08:12:41;;;;;;;12.55;9.20;;;;;;;;;;10077847;28;20049;-76
2024/03/28 08:17:33;;;;;;;18.35;14.75;;;;;;;;;;10085940;28;20045;-76
2024/03/28 08:22:26;;;;;;;17.83;15.43;;;;;;;;;;10086105;28;20124;-76
2024/03/28 08:27:18;;;;;;;16.85;14.85;;;;;;;;;;10085544;28;20052;-76
2024/03/28 08:32:12;;;;;;;23.70;21.35;;;;;;;;;;10091971;28;20033;-76
2024/03/28 08:37:04;;;;;;;15.05;13.55;;;;;;;;;;10093278;28;20390;-76
2024/03/28 08:41:58;;;;;;;13.82;12.50;;;;;;;;;;10090868;28;20048;-74
2024/03/28 08:46:50;;;;;;;15.73;13.85;;;;;;;;;;10092811;28;20061;-76
2024/03/28 08:51:43;;;;;;;20.77;17.90;;;;;;;;;;10093202;28;20045;-75
2024/03/28 08:56:35;;;;;;;23.15;20.33;;;;;;;;;;10093413;28;20064;-78
2024/03/28 09:01:29;;;;;;;18.85;13.23;;;;;;;;;;10092921;28;20090;-77
2024/03/28 09:06:22;;;;;;;12.13;10.18;;;;;;;;;;10077355;28;20061;-76
2024/03/28 09:11:15;;;;;;;17.33;15.52;;;;;;;;;;10091343;28;20098;-77
2024/03/28 09:16:08;;;;;;;21.02;18.95;;;;;;;;;;10093042;28;20057;-77
2024/03/28 09:21:08;;;;;;;20.50;18.40;;;;;;;;;;10087493;28;20045;-76
2024/03/28 09:26:02;;;;;;;19.75;17.85;;;;;;;;;;10089204;28;20044;-76
2024/03/28 09:30:54;;;;;;;19.95;17.77;;;;;;;;;;10091157;28;20045;-75
2024/03/28 09:35:46;;;;;;;16.17;14.63;;;;;;;;;;10091457;28;20052;-76
2024/03/28 09:41:00;;;;;;;16.80;15.07;;;;;;;;;;10090454;28;20064;-76
2024/03/28 09:46:00;;;;;;;16.88;15.15;;;;;;;;;;10090351;28;20045;-76
2024/03/28 09:50:53;;;;;;;18.10;16.30;;;;;;;;;;10105980;28;20052;-76
2024/03/28 09:55:44;;;;;;;17.45;15.65;;;;;;;;;;10106692;28;20053;-75
2024/03/28 10:00:37;;;;;;;19.27;12.85;;;;;;;;;;10107012;28;20044;-76
2024/03/28 10:05:29;;;;;;;14.20;11.88;;;;;;;;;;10088126;28;20459;-76
2024/03/28 10:10:24;;;;;;;15.07;11.57;;;;;;;;;;10106298;28;20591;-76
2024/03/28 10:15:35;;;;;;;14.82;11.77;;;;;;;;;;10105797;28;20053;-77
2024/03/28 10:20:37;;;;;;;16.23;13.13;;;;;;;;;;10106230;28;20048;-78
2024/03/28 10:26:11;;;;;;;13.07;11.80;;;;;;;;;;10105883;28;20053;-76
2024/03/28 10:31:04;;;;;;;15.40;13.00;;;;;;;;;;10096656;28;20102;-76
2024/03/28 10:36:04;;;;;;;13.90;12.10;;;;;;;;;;10103253;28;20408;-75
2024/03/28 10:40:59;;;;;;;12.63;11.02;;;;;;;;;;10100055;28;20041;-77
2024/03/28 10:46:15;;;;;;;9.85;7.47;;;;;;;;;;10083895;28;20052;-76
2024/03/28 10:51:25;;;;;;;;;;;;;;;;;;10099255;28;20045;-75
2024/03/28 10:56:58;;;;;;;6.93;3.35;;;;;;;;;;10099700;28;19959;-76
2024/03/28 11:02:19;;;;;;;8.45;4.63;;;;;;;;;;10102806;28;20041;-75
2024/03/28 11:07:31;;;;;;;4.07;3.67;;;;;;;;;;10100177;28;20049;-76
2024/03/28 11:12:43;;;;;;;4.75;4.13;;;;;;;;;;10091414;28;20401;-75
2024/03/28 11:17:55;;;;;;;5.10;4.45;;;;;;;;;;10090185;28;20405;-76
2024/03/28 11:23:07;;;;;;;8.10;4.72;;;;;;;;;;10095536;28;20053;-76
2024/03/28 11:28:17;;;;;;;5.05;3.92;;;;;;;;;;10081147;28;20687;-76
2024/03/28 11:33:11;;;;;;;6.10;4.57;;;;;;;;;;10085050;28;20049;-75
2024/03/28 11:38:23;;;;;;;5.68;3.67;;;;;;;;;;10077341;28;20045;-76
2024/03/28 11:43:16;;;;;;;6.25;5.75;;;;;;;;;;10073528;28;20398;-75
2024/03/28 11:48:09;;;;;;;6.47;5.88;;;;;;;;;;10092265;28;20081;-75
2024/03/28 11:53:02;;;;;;;9.80;6.13;;;;;;;;;;10076313;28;20088;-75
2024/03/28 11:58:04;;;;;;;5.97;5.40;;;;;;;;;;10073109;28;20042;-76
2024/03/28 12:02:58;;;;;;;7.82;7.13;;;;;;;;;;10077448;28;20053;-76
2024/03/28 12:07:51;;;;;;;6.00;5.50;;;;;;;;;;10091203;28;20098;-76
2024/03/28 12:12:44;;;;;;;8.68;7.85;;;;;;;;;;10072710;28;20042;-75
2024/03/28 12:17:40;;;;;;;10.40;9.60;;;;;;;;;;10072306;28;20042;-74
2024/03/28 12:22:33;;;;;;;8.63;7.72;;;;;;;;;;10084154;28;20042;-74
2024/03/28 12:27:27;;;;;;;11.05;10.15;;;;;;;;;;10073162;28;20042;-72
2024/03/28 12:32:19;;;;;;;12.18;10.68;;;;;;;;;;10082664;28;20053;-73
2024/03/28 12:37:13;;;;;;;13.05;11.95;;;;;;;;;;10076148;28;20394;-74
2024/03/28 12:42:05;;;;;;;15.50;14.10;;;;;;;;;;10080612;28;20041;-78
2024/03/28 12:46:58;;;;;;;17.70;16.15;;;;;;;;;;10074052;28;20057;-78
2024/03/28 12:51:50;;;;;;;15.52;14.10;;;;;;;;;;10061698;28;20460;-75
2024/03/28 12:56:42;;;;;;;12.65;11.55;;;;;;;;;;10074904;28;20060;-75
2024/03/28 13:01:34;;;;;;;12.55;11.20;;;;;;;;;;10070346;28;20570;-75
2024/03/28 13:06:27;;;;;;;10.15;9.40;;;;;;;;;;10075988;28;20103;-77
2024/03/28 13:11:20;;;;;;;9.40;8.32;;;;;;;;;;10071010;28;20412;-76
2024/03/28 13:16:12;;;;;;;8.10;7.30;;;;;;;;;;10072070;28;20075;-75
2024/03/28 13:21:05;;;;;;;16.00;9.70;;;;;;;;;;10078037;28;20045;-71
2024/03/28 13:25:58;;;;;;;6.82;6.28;;;;;;;;;;10078863;28;20055;-71
2024/03/28 13:30:50;;;;;;;6.10;5.63;;;;;;;;;;10082075;28;20045;-71
2024/03/28 13:35:43;;;;;;;6.72;6.10;;;;;;;;;;10076656;28;20424;-71
2024/03/28 13:40:37;;;;;;;7.53;6.38;;;;;;;;;;10065628;28;20053;-71
2024/03/28 13:45:29;;;;;;;7.30;6.70;;;;;;;;;;10071541;28;20051;-71
2024/03/28 13:50:22;;;;;;;7.55;6.85;;;;;;;;;;10088303;28;20053;-70
2024/03/28 13:55:15;;;;;;;5.90;5.40;;;;;;;;;;10084181;28;20058;-71
2024/03/28 14:00:09;;;;;;;7.50;6.43;;;;;;;;;;10087374;28;20071;-71
2024/03/28 14:05:03;;;;;;;5.72;5.13;;;;;;;;;;10090730;28;20494;-70
2024/03/28 14:09:56;;;;;;;4.90;4.50;;;;;;;;;;10083835;28;20041;-70
2024/03/28 14:14:48;;;;;;;5.85;5.35;;;;;;;;;;10082507;28;20541;-70
2024/03/28 14:19:41;;;;;;;6.00;5.00;;;;;;;;;;10088852;28;20162;-74
2024/03/28 14:24:34;;;;;;;4.95;4.40;;;;;;;;;;10084697;28;20057;-68
2024/03/28 14:29:26;;;;;;;5.22;4.70;;;;;;;;;;10088543;28;20061;-71
2024/03/28 14:34:19;;;;;;;4.57;4.15;;;;;;;;;;10079031;28;21350;-71
2024/03/28 14:39:12;;;;;;;4.65;4.07;;;;;;;;;;10086727;28;20495;-70
2024/03/28 14:44:05;;;;;;;6.22;4.20;;;;;;;;;;10093759;28;20065;-71
2024/03/28 14:48:57;;;;;;;4.90;4.32;;;;;;;;;;10091359;28;20060;-70
2024/03/28 14:53:54;;;;;;;7.75;4.20;;;;;;;;;;10072326;28;20724;-71
2024/03/28 14:58:46;;;;;;;5.70;5.20;;;;;;;;;;10068795;28;20132;-70
2024/03/28 15:03:39;;;;;;;10.07;7.30;;;;;;;;;;10077412;28;20082;-70
2024/03/28 15:08:31;;;;;;;5.97;5.45;;;;;;;;;;10068902;28;20041;-72
2024/03/28 15:13:23;;;;;;;6.78;4.80;;;;;;;;;;10078879;28;20180;-71
2024/03/28 15:18:16;;;;;;;5.72;5.18;;;;;;;;;;10056292;28;20455;-70
2024/03/28 15:23:10;;;;;;;6.20;5.32;;;;;;;;;;10057512;28;20053;-71
2024/03/28 15:28:03;;;;;;;6.25;5.65;;;;;;;;;;10071550;28;20096;-70
2024/03/28 15:32:56;;;;;;;7.65;5.22;;;;;;;;;;10064482;28;20493;-71
2024/03/28 15:37:50;;;;;;;6.80;5.22;;;;;;;;;;10059464;28;20046;-72
2024/03/28 15:42:43;;;;;;;7.05;6.38;;;;;;;;;;10070081;28;20441;-72
2024/03/28 15:47:35;;;;;;;6.32;5.18;;;;;;;;;;10086512;28;20053;-72
2024/03/28 15:52:29;;;;;;;5.20;4.80;;;;;;;;;;10086888;28;20045;-71
2024/03/28 15:57:22;;;;;;;5.03;4.53;;;;;;;;;;10086683;28;20057;-71
2024/03/28 16:02:15;;;;;;;5.85;5.25;;;;;;;;;;10086675;28;20045;-72
2024/03/28 16:07:08;;;;;;;8.75;7.82;;;;;;;;;;10086564;28;20099;-72
2024/03/28 16:12:00;;;;;;;6.03;5.43;;;;;;;;;;10084870;28;20057;-71
2024/03/28 16:16:53;;;;;;;6.15;5.13;;;;;;;;;;10084658;28;20060;-70
2024/03/28 16:21:45;;;;;;;5.50;5.00;;;;;;;;;;10085710;28;20045;-71
2024/03/28 16:26:38;;;;;;;6.05;5.28;;;;;;;;;;10085895;28;20069;-72
2024/03/28 16:31:30;;;;;;;6.63;5.93;;;;;;;;;;10085968;28;20091;-70
2024/03/28 16:36:23;;;;;;;8.48;5.82;;;;;;;;;;10085905;28;20128;-71
2024/03/28 16:41:18;;;;;;;6.10;5.60;;;;;;;;;;10086049;28;20106;-73
2024/03/28 16:46:11;;;;;;;5.97;5.47;;;;;;;;;;10075288;28;20132;-72
2024/03/28 16:51:04;;;;;;;9.43;5.70;;;;;;;;;;10087208;28;20131;-71
2024/03/28 16:55:58;;;;;;;7.15;5.68;;;;;;;;;;10092327;28;20049;-73
2024/03/28 17:00:50;;;;;;;6.68;5.28;;;;;;;;;;10092391;28;20055;-71
2024/03/28 17:05:43;;;;;;;5.00;4.60;;;;;;;;;;10092340;28;20132;-72
2024/03/28 17:10:42;;;;;;;7.60;6.90;;;;;;;;;;10092413;28;20045;-71
2024/03/28 17:15:35;;;;;;;6.57;5.40;;;;;;;;;;10084661;28;20068;-73
2024/03/28 17:20:27;;;;;;;6.07;5.47;;;;;;;;;;10089622;28;20424;-71
2024/03/28 17:25:20;;;;;;;5.13;4.57;;;;;;;;;;10079158;28;20133;-73
2024/03/28 17:30:13;;;;;;;4.85;4.45;;;;;;;;;;10087908;28;20064;-71
2024/03/28 17:35:06;;;;;;;5.95;5.22;;;;;;;;;;10081940;28;20092;-73
2024/03/28 17:39:58;;;;;;;9.07;5.55;;;;;;;;;;10087816;28;20040;-71
2024/03/28 17:44:51;;;;;;;23.90;21.42;;;;;;;;;;10086778;28;20044;-72
2024/03/28 17:49:43;;;;;;;9.55;7.60;;;;;;;;;;10075033;28;20102;-72
2024/03/28 17:54:35;;;;;;;6.47;5.88;;;;;;;;;;10096970;28;20047;-68
2024/03/28 17:59:31;;;;;;;6.15;5.55;;;;;;;;;;10096699;28;20505;-68
2024/03/28 18:04:24;;;;;;;6.95;6.28;;;;;;;;;;10092600;28;20048;-68
2024/03/28 18:09:19;;;;;;;6.95;6.25;;;;;;;;;;10088714;28;20045;-68
2024/03/28 18:14:11;;;;;;;11.40;9.68;;;;;;;;;;10073001;28;20033;-67
2024/03/28 18:19:05;;;;;;;9.65;8.65;;;;;;;;;;10083496;28;20218;-67
2024/03/28 18:23:57;;;;;;;8.70;7.90;;;;;;;;;;10087183;28;20041;-71
2024/03/28 18:28:50;;;;;;;8.40;7.63;;;;;;;;;;10087569;28;20033;-66
2024/03/28 18:33:42;;;;;;;15.82;12.82;;;;;;;;;;10079946;28;20045;-70
2024/03/28 18:38:34;;;;;;;11.80;7.60;;;;;;;;;;10097173;28;20061;-67
2024/03/28 18:43:28;;;;;;;9.75;8.88;;;;;;;;;;10105162;28;20052;-69
2024/03/28 18:48:22;;;;;;;9.25;8.27;;;;;;;;;;10087711;28;20053;-75
2024/03/28 18:53:15;;;;;;;9.18;8.38;;;;;;;;;;10089905;28;20090;-67
2024/03/28 18:58:07;;;;;;;10.80;9.70;;;;;;;;;;10089294;28;20493;-68
2024/03/28 19:03:00;;;;;;;10.75;9.35;;;;;;;;;;10088261;28;20052;-67
2024/03/28 19:07:52;;;;;;;14.75;13.23;;;;;;;;;;10088467;28;20403;-67
2024/03/28 19:12:44;;;;;;;12.60;11.48;;;;;;;;;;10083836;28;20049;-67
2024/03/28 19:17:38;;;;;;;13.38;12.07;;;;;;;;;;10081549;28;20037;-67
2024/03/28 19:22:31;;;;;;;11.15;10.18;;;;;;;;;;10087966;28;20094;-68
2024/03/28 19:27:24;;;;;;;15.30;12.35;;;;;;;;;;10084715;28;20167;-68
2024/03/28 19:32:17;;;;;;;16.52;14.73;;;;;;;;;;10073837;28;20049;-68
2024/03/28 19:37:09;;;;;;;20.20;18.20;;;;;;;;;;10069867;28;20072;-66
2024/03/28 19:42:03;;;;;;;20.75;16.23;;;;;;;;;;10070493;28;20128;-68
2024/03/28 19:46:56;;;;;;;15.10;13.35;;;;;;;;;;10086691;28;20106;-67
2024/03/28 19:51:49;;;;;;;14.70;13.30;;;;;;;;;;10086617;28;20056;-67
2024/03/28 19:56:44;;;;;;;14.52;13.13;;;;;;;;;;10087582;28;20076;-64
2024/03/28 20:01:37;;;;;;;14.75;13.25;;;;;;;;;;10087152;28;20055;-67
2024/03/28 20:06:30;;;;;;;12.93;11.57;;;;;;;;;;10083454;28;20053;-67
2024/03/28 20:11:22;;;;;;;17.48;15.68;;;;;;;;;;10101617;28;20139;-67
2024/03/28 20:16:15;;;;;;;15.63;14.13;;;;;;;;;;10086991;28;20041;-68
2024/03/28 20:21:08;;;;;;;19.55;17.15;;;;;;;;;;10086785;28;20053;-66
2024/03/28 20:26:03;;;;;;;21.77;19.02;;;;;;;;;;10090820;28;20037;-67
2024/03/28 20:30:56;;;;;;;17.75;15.88;;;;;;;;;;10089577;28;20041;-66
2024/03/28 20:35:49;;;;;;;18.90;13.90;;;;;;;;;;10075472;28;20452;-69
2024/03/28 20:40:41;;;;;;;18.77;16.80;;;;;;;;;;10074767;28;20049;-67
2024/03/28 20:45:33;;;;;;;47.38;38.78;;;;;;;;;;10092231;28;20047;-68
2024/03/28 20:50:25;;;;;;;39.97;35.85;;;;;;;;;;10096614;28;20061;-68
2024/03/28 20:55:18;;;;;;;24.48;21.95;;;;;;;;;;10109031;28;20094;-67
2024/03/28 21:00:12;;;;;;;20.83;18.20;;;;;;;;;;10101136;28;20076;-68
2024/03/28 21:05:06;;;;;;;18.50;16.60;;;;;;;;;;10109135;28;20045;-68
2024/03/28 21:15:11;;;;;;;18.95;16.95;;;;;;;;;;10104845;28;20102;-69
2024/03/28 21:20:07;;;;;;;29.27;22.83;;;;;;;;;;10109292;28;20075;-67
2024/03/28 21:25:00;;;;;;;20.77;18.70;;;;;;;;;;10110229;28;20479;-67
2024/03/28 21:29:54;;;;;;;22.25;17.95;;;;;;;;;;10108471;28;20508;-67
2024/03/28 21:34:45;;;;;;;19.23;17.15;;;;;;;;;;10108961;28;20390;-68
2024/03/28 21:39:38;;;;;;;19.50;17.58;;;;;;;;;;10107566;28;20056;-67
2024/03/28 21:44:31;;;;;;;20.67;17.98;;;;;;;;;;10094625;28;20454;-68
2024/03/28 21:49:24;;;;;;;21.45;19.05;;;;;;;;;;10078445;28;20058;-68
2024/03/28 21:54:17;;;;;;;20.38;18.15;;;;;;;;;;10094919;28;20061;-68
2024/03/28 21:59:09;;;;;;;24.65;21.48;;;;;;;;;;10092293;28;20124;-67
2024/03/28 22:04:01;;;;;;;24.83;21.23;;;;;;;;;;10089243;28;20385;-67
2024/03/28 22:08:54;;;;;;;26.40;21.15;;;;;;;;;;10082856;28;20074;-64
2024/03/28 22:13:47;;;;;;;27.75;23.60;;;;;;;;;;10096550;28;20147;-68
2024/03/28 22:18:40;;;;;;;29.85;22.85;;;;;;;;;;10106542;28;20051;-68
2024/03/28 22:23:32;;;;;;;31.80;24.75;;;;;;;;;;10123954;28;20049;-69
2024/03/28 22:28:25;;;;;;;27.98;24.92;;;;;;;;;;10106988;28;20053;-69
2024/03/28 22:33:18;;;;;;;30.60;26.33;;;;;;;;;;10105632;28;20045;-67
2024/03/28 22:38:10;;;;;;;28.85;25.75;;;;;;;;;;10097516;28;20049;-68
2024/03/28 22:43:04;;;;;;;36.72;26.73;;;;;;;;;;10123068;28;20102;-68
2024/03/28 22:47:57;;;;;;;28.60;25.60;;;;;;;;;;10093347;28;20045;-68
2024/03/28 22:52:50;;;;;;;30.05;26.85;;;;;;;;;;10049854;28;20132;-67
2024/03/28 22:57:43;;;;;;;30.40;27.10;;;;;;;;;;10050019;28;20740;-67
2024/03/28 23:02:35;;;;;;;28.58;25.58;;;;;;;;;;10049920;28;20444;-68
2024/03/28 23:07:28;;;;;;;27.30;24.40;;;;;;;;;;10049192;28;20056;-68
2024/03/28 23:12:21;;;;;;;31.63;23.85;;;;;;;;;;10049183;28;20084;-69
2024/03/28 23:17:13;;;;;;;26.60;23.50;;;;;;;;;;10049006;28;20163;-67
2024/03/28 23:22:06;;;;;;;33.63;23.02;;;;;;;;;;10048793;28;20107;-69
2024/03/28 23:26:59;;;;;;;23.73;18.83;;;;;;;;;;10048353;28;20124;-69
2024/03/28 23:31:51;;;;;;;27.73;19.02;;;;;;;;;;10048697;28;20049;-68
2024/03/28 23:36:47;;;;;;;25.58;17.00;;;;;;;;;;10048873;28;20212;-68
2024/03/28 23:41:39;;;;;;;22.83;18.45;;;;;;;;;;10048759;28;20084;-67
2024/03/28 23:46:32;;;;;;;27.50;16.92;;;;;;;;;;10051380;28;20075;-68
2024/03/28 23:51:25;;;;;;;36.78;19.50;;;;;;;;;;10061458;28;20416;-68
2024/03/28 23:56:17;;;;;;;23.77;17.73;;;;;;;;;;10073907;28;20081;-68
